createdAt,value
2018-02-15T00:00:05.121Z,979.59
2018-02-15T00:01:06.003Z,979.64
2018-02-15T00:02:10.644Z,979.59
2018-02-15T00:03:05.759Z,979.59
2018-02-15T00:04:05.009Z,979.62
2018-02-15T00:05:05.618Z,979.67
2018-02-15T00:06:05.432Z,979.78
2018-02-15T00:07:06.131Z,979.65
2018-02-15T00:08:05.579Z,979.70
2018-02-15T00:09:06.361Z,979.68
2018-02-15T00:10:05.581Z,979.73
2018-02-15T00:11:05.053Z,979.65
2018-02-15T00:12:05.820Z,979.76
2018-02-15T00:13:05.933Z,979.62
2018-02-15T00:14:05.358Z,979.97
2018-02-15T00:15:05.294Z,979.85
2018-02-15T00:16:05.252Z,979.86
2018-02-15T00:17:05.751Z,979.71
2018-02-15T00:18:05.567Z,979.68
2018-02-15T00:19:05.102Z,979.85
2018-02-15T00:20:05.648Z,979.79
2018-02-15T00:21:05.480Z,979.86
2018-02-15T00:22:05.158Z,979.74
2018-02-15T00:23:05.744Z,979.79
2018-02-15T00:24:06.083Z,979.82
2018-02-15T00:25:05.168Z,979.82
2018-02-15T00:26:05.568Z,979.86
2018-02-15T00:27:05.933Z,979.71
2018-02-15T00:28:05.469Z,979.74
2018-02-15T00:29:05.377Z,979.79
2018-02-15T00:30:05.149Z,979.74
2018-02-15T00:31:05.111Z,979.68
2018-02-15T00:32:05.463Z,979.60
2018-02-15T00:33:05.315Z,979.60
2018-02-15T00:34:05.193Z,979.65
2018-02-15T00:35:05.304Z,979.60
2018-02-15T00:36:05.358Z,979.79
2018-02-15T00:37:05.859Z,979.77
2018-02-15T00:38:05.356Z,979.74
2018-02-15T00:39:05.812Z,979.60
2018-02-15T00:40:05.301Z,979.74
2018-02-15T00:41:10.288Z,979.65
2018-02-15T00:42:05.280Z,979.74
2018-02-15T00:43:05.940Z,979.77
2018-02-15T00:44:05.455Z,979.74
2018-02-15T00:45:05.881Z,979.74
2018-02-15T00:46:10.334Z,979.85
2018-02-15T00:47:05.577Z,979.77
2018-02-15T00:48:05.620Z,979.77
2018-02-15T00:49:05.343Z,979.87
2018-02-15T00:50:06.226Z,979.82
2018-02-15T00:51:05.453Z,979.77
2018-02-15T00:52:05.183Z,979.85
2018-02-15T00:53:05.316Z,979.82
2018-02-15T00:54:05.351Z,979.87
2018-02-15T00:55:05.188Z,979.90
2018-02-15T00:56:05.746Z,979.95
2018-02-15T00:57:05.526Z,979.87
2018-02-15T00:58:05.156Z,979.85
2018-02-15T00:59:05.825Z,979.98
2018-02-15T01:00:05.510Z,979.87
2018-02-15T01:01:05.492Z,979.85
2018-02-15T01:02:05.382Z,979.90
2018-02-15T01:03:05.861Z,979.98
2018-02-15T01:04:05.832Z,980.01
2018-02-15T01:05:05.737Z,980.01
2018-02-15T01:06:05.795Z,979.80
2018-02-15T01:07:05.063Z,979.99
2018-02-15T01:08:04.946Z,979.96
2018-02-15T01:09:05.020Z,979.86
2018-02-15T01:10:06.066Z,979.83
2018-02-15T01:11:05.061Z,979.88
2018-02-15T01:12:05.581Z,979.70
2018-02-15T01:13:05.353Z,979.81
2018-02-15T01:14:05.382Z,979.78
2018-02-15T01:15:05.586Z,979.88
2018-02-15T01:16:05.568Z,979.88
2018-02-15T01:17:05.504Z,979.86
2018-02-15T01:18:05.026Z,979.86
2018-02-15T01:19:05.896Z,979.73
2018-02-15T01:20:05.339Z,979.75
2018-02-15T01:21:05.113Z,979.78
2018-02-15T01:22:05.905Z,979.88
2018-02-15T01:23:05.327Z,979.84
2018-02-15T01:24:05.897Z,979.84
2018-02-15T01:25:05.412Z,979.81
2018-02-15T01:26:05.738Z,979.84
2018-02-15T01:27:05.914Z,979.86
2018-02-15T01:28:05.450Z,979.78
2018-02-15T01:29:05.966Z,979.94
2018-02-15T01:30:05.548Z,979.84
2018-02-15T01:31:05.058Z,979.73
2018-02-15T01:32:05.553Z,979.70
2018-02-15T01:33:10.417Z,979.78
2018-02-15T01:34:05.184Z,979.70
2018-02-15T01:35:05.006Z,979.79
2018-02-15T01:36:05.103Z,979.76
2018-02-15T01:37:05.871Z,979.81
2018-02-15T01:38:05.121Z,979.81
2018-02-15T01:39:05.682Z,979.65
2018-02-15T01:40:05.610Z,979.57
2018-02-15T01:41:05.520Z,979.79
2018-02-15T01:42:05.066Z,979.65
2018-02-15T01:43:05.858Z,979.57
2018-02-15T01:44:05.922Z,979.57
2018-02-15T01:45:05.353Z,979.52
2018-02-15T01:46:05.305Z,979.60
2018-02-15T01:47:05.727Z,979.74
2018-02-15T01:48:05.676Z,979.71
2018-02-15T01:49:05.747Z,979.57
2018-02-15T01:50:05.379Z,979.69
2018-02-15T01:51:05.717Z,979.58
2018-02-15T01:52:10.472Z,979.58
2018-02-15T01:53:05.583Z,979.66
2018-02-15T01:54:10.783Z,979.58
2018-02-15T01:55:05.926Z,979.58
2018-02-15T01:56:05.939Z,979.61
2018-02-15T01:57:06.376Z,979.66
2018-02-15T01:58:05.382Z,979.69
2018-02-15T01:59:05.227Z,979.55
2018-02-15T02:00:05.315Z,979.58
2018-02-15T02:01:05.286Z,979.69
2018-02-15T02:02:05.519Z,979.72
2018-02-15T02:03:05.654Z,979.72
2018-02-15T02:04:05.122Z,979.55
2018-02-15T02:05:05.163Z,979.80
2018-02-15T02:06:05.230Z,979.78
2018-02-15T02:07:05.588Z,979.86
2018-02-15T02:08:05.454Z,979.56
2018-02-15T02:09:05.303Z,979.78
2018-02-15T02:10:05.505Z,979.78
2018-02-15T02:11:05.534Z,979.61
2018-02-15T02:12:05.284Z,979.69
2018-02-15T02:13:05.964Z,979.64
2018-02-15T02:14:05.025Z,979.78
2018-02-15T02:15:05.969Z,979.56
2018-02-15T02:16:05.279Z,979.39
2018-02-15T02:17:05.621Z,979.61
2018-02-15T02:18:05.284Z,979.48
2018-02-15T02:19:05.891Z,979.39
2018-02-15T02:20:05.111Z,979.34
2018-02-15T02:21:05.109Z,979.45
2018-02-15T02:22:05.702Z,979.53
2018-02-15T02:23:05.369Z,979.53
2018-02-15T02:24:05.340Z,979.43
2018-02-15T02:25:05.292Z,979.54
2018-02-15T02:26:10.132Z,979.34
2018-02-15T02:27:05.417Z,979.46
2018-02-15T02:28:05.426Z,979.29
2018-02-15T02:29:05.566Z,979.48
2018-02-15T02:30:05.681Z,979.51
2018-02-15T02:31:05.745Z,979.43
2018-02-15T02:32:05.090Z,979.40
2018-02-15T02:33:05.132Z,979.51
2018-02-15T02:34:05.963Z,979.49
2018-02-15T02:35:05.504Z,979.46
2018-02-15T02:36:05.206Z,979.38
2018-02-15T02:37:05.534Z,979.27
2018-02-15T02:38:05.114Z,979.30
2018-02-15T02:39:05.793Z,979.27
2018-02-15T02:40:05.176Z,979.10
2018-02-15T02:41:05.329Z,979.13
2018-02-15T02:42:05.337Z,979.24
2018-02-15T02:43:05.451Z,979.13
2018-02-15T02:44:05.163Z,979.22
2018-02-15T02:45:05.143Z,979.27
2018-02-15T02:46:05.736Z,979.19
2018-02-15T02:47:06.075Z,979.22
2018-02-15T02:48:05.461Z,979.30
2018-02-15T02:49:05.251Z,979.25
2018-02-15T02:50:05.031Z,979.22
2018-02-15T02:51:05.791Z,979.17
2018-02-15T02:52:05.163Z,979.25
2018-02-15T02:53:05.181Z,979.14
2018-02-15T02:54:06.487Z,979.06
2018-02-15T02:55:05.343Z,979.20
2018-02-15T02:56:05.474Z,979.17
2018-02-15T02:57:05.797Z,979.09
2018-02-15T02:58:05.574Z,979.12
2018-02-15T02:59:10.958Z,979.09
2018-02-15T03:00:05.979Z,978.95
2018-02-15T03:01:05.580Z,979.01
2018-02-15T03:02:05.163Z,978.84
2018-02-15T03:03:05.904Z,978.79
2018-02-15T03:04:05.414Z,978.90
2018-02-15T03:05:05.806Z,978.81
2018-02-15T03:06:05.698Z,978.65
2018-02-15T03:07:05.606Z,978.81
2018-02-15T03:08:05.752Z,978.79
2018-02-15T03:09:05.763Z,978.73
2018-02-15T03:10:05.389Z,978.76
2018-02-15T03:11:06.058Z,978.81
2018-02-15T03:12:05.357Z,978.59
2018-02-15T03:13:05.818Z,978.67
2018-02-15T03:14:10.519Z,978.76
2018-02-15T03:15:05.700Z,978.67
2018-02-15T03:16:05.859Z,978.67
2018-02-15T03:17:05.238Z,978.67
2018-02-15T03:18:06.021Z,978.73
2018-02-15T03:19:05.345Z,978.78
2018-02-15T03:20:05.334Z,978.48
2018-02-15T03:21:06.049Z,978.70
2018-02-15T03:22:05.229Z,978.59
2018-02-15T03:23:05.437Z,978.67
2018-02-15T03:24:05.480Z,978.70
2018-02-15T03:25:05.958Z,978.59
2018-02-15T03:26:05.629Z,978.45
2018-02-15T03:27:05.847Z,978.67
2018-02-15T03:28:05.933Z,978.50
2018-02-15T03:29:05.876Z,978.45
2018-02-15T03:30:05.617Z,978.56
2018-02-15T03:31:05.251Z,978.53
2018-02-15T03:32:06.607Z,978.56
2018-02-15T03:33:05.769Z,978.59
2018-02-15T03:34:05.522Z,978.64
2018-02-15T03:35:05.137Z,978.75
2018-02-15T03:36:05.610Z,978.75
2018-02-15T03:37:06.118Z,978.81
2018-02-15T03:38:05.779Z,978.92
2018-02-15T03:39:05.976Z,978.75
2018-02-15T03:40:05.186Z,978.89
2018-02-15T03:41:05.863Z,978.86
2018-02-15T03:42:05.306Z,978.69
2018-02-15T03:43:05.642Z,978.72
2018-02-15T03:44:05.573Z,978.61
2018-02-15T03:45:05.123Z,978.61
2018-02-15T03:46:05.343Z,978.69
2018-02-15T03:47:05.647Z,978.58
2018-02-15T03:48:05.085Z,978.64
2018-02-15T03:49:06.055Z,978.55
2018-02-15T03:50:05.226Z,978.58
2018-02-15T03:51:05.924Z,978.69
2018-02-15T03:52:04.968Z,978.53
2018-02-15T03:53:05.836Z,978.53
2018-02-15T03:54:05.581Z,978.72
2018-02-15T03:55:05.550Z,978.61
2018-02-15T03:56:05.651Z,978.72
2018-02-15T03:57:05.860Z,978.69
2018-02-15T03:58:05.234Z,978.66
2018-02-15T03:59:06.226Z,978.64
2018-02-15T04:00:05.246Z,978.52
2018-02-15T04:01:05.705Z,978.61
2018-02-15T04:02:10.435Z,978.63
2018-02-15T04:03:05.638Z,978.63
2018-02-15T04:04:05.799Z,978.47
2018-02-15T04:05:05.796Z,978.60
2018-02-15T04:06:05.396Z,978.52
2018-02-15T04:07:08.337Z,978.39
2018-02-15T04:08:05.305Z,978.39
2018-02-15T04:09:06.206Z,978.39
2018-02-15T04:10:05.382Z,978.60
2018-02-15T04:11:05.901Z,978.44
2018-02-15T04:12:05.132Z,978.42
2018-02-15T04:13:05.835Z,978.34
2018-02-15T04:14:05.592Z,978.42
2018-02-15T04:15:05.818Z,978.33
2018-02-15T04:16:05.934Z,978.44
2018-02-15T04:17:05.629Z,978.36
2018-02-15T04:18:05.598Z,978.39
2018-02-15T04:19:05.758Z,978.36
2018-02-15T04:20:05.870Z,978.39
2018-02-15T04:21:05.341Z,978.25
2018-02-15T04:22:04.958Z,978.36
2018-02-15T04:23:05.815Z,978.33
2018-02-15T04:24:05.808Z,978.38
2018-02-15T04:25:05.623Z,978.57
2018-02-15T04:26:05.154Z,978.44
2018-02-15T04:27:05.810Z,978.38
2018-02-15T04:28:06.043Z,978.46
2018-02-15T04:29:05.340Z,978.30
2018-02-15T04:30:04.909Z,978.35
2018-02-15T04:31:05.636Z,978.45
2018-02-15T04:32:05.882Z,978.44
2018-02-15T04:33:05.168Z,978.48
2018-02-15T04:34:05.935Z,978.30
2018-02-15T04:35:05.353Z,978.30
2018-02-15T04:36:05.482Z,978.38
2018-02-15T04:37:05.332Z,978.38
2018-02-15T04:38:05.565Z,978.35
2018-02-15T04:39:05.516Z,978.32
2018-02-15T04:40:05.552Z,978.41
2018-02-15T04:41:05.231Z,978.41
2018-02-15T04:42:05.377Z,978.32
2018-02-15T04:43:05.267Z,978.43
2018-02-15T04:44:05.544Z,978.32
2018-02-15T04:45:05.228Z,978.43
2018-02-15T04:46:05.536Z,978.45
2018-02-15T04:47:05.282Z,978.37
2018-02-15T04:48:06.090Z,978.35
2018-02-15T04:49:05.948Z,978.32
2018-02-15T04:50:05.284Z,978.34
2018-02-15T04:51:05.093Z,978.32
2018-02-15T04:52:06.224Z,978.18
2018-02-15T04:53:05.477Z,978.32
2018-02-15T04:54:05.035Z,978.10
2018-02-15T04:55:05.171Z,978.07
2018-02-15T04:56:05.048Z,978.04
2018-02-15T04:57:05.567Z,978.07
2018-02-15T04:58:05.265Z,978.15
2018-02-15T04:59:05.721Z,978.31
2018-02-15T05:00:05.773Z,978.09
2018-02-15T05:01:05.318Z,977.95
2018-02-15T05:02:05.155Z,978.06
2018-02-15T05:03:06.090Z,978.09
2018-02-15T05:04:05.615Z,978.12
2018-02-15T05:05:05.024Z,978.06
2018-02-15T05:06:05.951Z,978.03
2018-02-15T05:07:06.738Z,978.12
2018-02-15T05:08:05.676Z,978.03
2018-02-15T05:09:05.340Z,978.09
2018-02-15T05:10:05.426Z,978.09
2018-02-15T05:11:05.720Z,978.09
2018-02-15T05:12:05.552Z,978.03
2018-02-15T05:13:05.601Z,978.11
2018-02-15T05:14:05.865Z,978.00
2018-02-15T05:15:05.493Z,978.11
2018-02-15T05:16:05.407Z,977.94
2018-02-15T05:17:05.611Z,978.03
2018-02-15T05:18:05.107Z,977.86
2018-02-15T05:19:05.720Z,977.97
2018-02-15T05:20:05.533Z,977.97
2018-02-15T05:21:05.128Z,978.00
2018-02-15T05:22:05.061Z,977.89
2018-02-15T05:23:05.532Z,978.00
2018-02-15T05:24:05.106Z,977.83
2018-02-15T05:25:06.220Z,977.86
2018-02-15T05:26:05.655Z,978.02
2018-02-15T05:27:06.165Z,977.83
2018-02-15T05:28:05.652Z,977.77
2018-02-15T05:29:05.790Z,977.77
2018-02-15T05:30:05.984Z,978.05
2018-02-15T05:31:10.011Z,977.80
2018-02-15T05:32:05.234Z,977.77
2018-02-15T05:33:05.335Z,977.71
2018-02-15T05:34:05.486Z,977.88
2018-02-15T05:35:06.077Z,977.82
2018-02-15T05:36:05.641Z,977.79
2018-02-15T05:37:06.739Z,977.79
2018-02-15T05:38:05.157Z,977.82
2018-02-15T05:39:05.421Z,978.07
2018-02-15T05:40:05.355Z,977.98
2018-02-15T05:41:05.052Z,978.09
2018-02-15T05:42:11.199Z,978.12
2018-02-15T05:43:05.404Z,978.12
2018-02-15T05:44:06.579Z,978.12
2018-02-15T05:45:05.585Z,978.17
2018-02-15T05:46:05.173Z,978.09
2018-02-15T05:47:05.104Z,978.17
2018-02-15T05:48:05.894Z,978.09
2018-02-15T05:49:05.390Z,978.20
2018-02-15T05:50:05.300Z,978.11
2018-02-15T05:51:05.418Z,978.06
2018-02-15T05:52:05.266Z,978.20
2018-02-15T05:53:05.951Z,978.00
2018-02-15T05:54:05.570Z,978.22
2018-02-15T05:55:05.681Z,978.20
2018-02-15T05:56:05.689Z,978.20
2018-02-15T05:57:05.843Z,978.17
2018-02-15T05:58:05.601Z,978.22
2018-02-15T05:59:08.479Z,978.41
2018-02-15T06:00:05.429Z,978.27
2018-02-15T06:01:05.137Z,978.11
2018-02-15T06:02:05.357Z,978.27
2018-02-15T06:03:05.257Z,978.24
2018-02-15T06:04:10.563Z,978.35
2018-02-15T06:05:05.779Z,978.41
2018-02-15T06:06:05.200Z,978.54
2018-02-15T06:07:05.126Z,978.43
2018-02-15T06:08:05.254Z,978.30
2018-02-15T06:09:05.184Z,978.48
2018-02-15T06:10:05.756Z,978.56
2018-02-15T06:11:05.298Z,978.32
2018-02-15T06:12:05.116Z,978.53
2018-02-15T06:13:05.740Z,978.45
2018-02-15T06:14:05.489Z,978.35
2018-02-15T06:15:05.841Z,978.45
2018-02-15T06:16:05.490Z,978.45
2018-02-15T06:17:05.939Z,978.45
2018-02-15T06:18:06.166Z,978.38
2018-02-15T06:19:05.844Z,978.56
2018-02-15T06:20:06.410Z,978.45
2018-02-15T06:21:05.509Z,978.43
2018-02-15T06:22:05.540Z,978.45
2018-02-15T06:23:06.743Z,978.43
2018-02-15T06:24:10.676Z,978.41
2018-02-15T06:25:10.782Z,978.43
2018-02-15T06:26:05.825Z,978.54
2018-02-15T06:27:05.545Z,978.41
2018-02-15T06:28:05.272Z,978.51
2018-02-15T06:29:05.100Z,978.41
2018-02-15T06:30:05.982Z,978.51
2018-02-15T06:31:06.369Z,978.51
2018-02-15T06:32:05.028Z,978.56
2018-02-15T06:33:05.337Z,978.59
2018-02-15T06:34:05.796Z,978.45
2018-02-15T06:35:05.109Z,978.38
2018-02-15T06:36:05.961Z,978.51
2018-02-15T06:37:05.269Z,978.51
2018-02-15T06:38:05.332Z,978.51
2018-02-15T06:39:05.924Z,978.51
2018-02-15T06:40:05.588Z,978.41
2018-02-15T06:41:05.097Z,978.38
2018-02-15T06:42:06.024Z,978.30
2018-02-15T06:43:05.823Z,978.41
2018-02-15T06:44:05.993Z,978.29
2018-02-15T06:45:05.827Z,978.21
2018-02-15T06:46:04.974Z,978.21
2018-02-15T06:47:05.320Z,978.27
2018-02-15T06:48:05.284Z,978.24
2018-02-15T06:49:05.080Z,978.21
2018-02-15T06:50:05.009Z,978.18
2018-02-15T06:51:05.046Z,978.15
2018-02-15T06:52:05.682Z,978.24
2018-02-15T06:53:05.685Z,978.21
2018-02-15T06:54:05.450Z,978.26
2018-02-15T06:55:06.850Z,978.29
2018-02-15T06:56:05.235Z,978.18
2018-02-15T06:57:05.113Z,978.10
2018-02-15T06:58:05.350Z,978.24
2018-02-15T06:59:05.282Z,978.10
2018-02-15T07:00:05.071Z,978.23
2018-02-15T07:01:05.316Z,978.18
2018-02-15T07:02:05.269Z,978.18
2018-02-15T07:03:05.352Z,978.26
2018-02-15T07:04:05.056Z,978.26
2018-02-15T07:05:05.642Z,978.09
2018-02-15T07:06:05.209Z,978.12
2018-02-15T07:07:05.607Z,978.12
2018-02-15T07:08:05.567Z,978.09
2018-02-15T07:09:05.700Z,978.17
2018-02-15T07:10:05.772Z,978.28
2018-02-15T07:11:05.092Z,978.09
2018-02-15T07:12:05.141Z,978.23
2018-02-15T07:13:04.987Z,978.20
2018-02-15T07:14:05.750Z,978.12
2018-02-15T07:15:05.520Z,978.09
2018-02-15T07:16:05.437Z,978.03
2018-02-15T07:17:05.625Z,978.17
2018-02-15T07:18:05.496Z,978.06
2018-02-15T07:19:05.429Z,977.95
2018-02-15T07:20:05.341Z,977.95
2018-02-15T07:21:04.951Z,977.89
2018-02-15T07:22:09.943Z,978.03
2018-02-15T07:23:06.175Z,977.92
2018-02-15T07:24:05.458Z,977.86
2018-02-15T07:25:05.539Z,977.94
2018-02-15T07:26:05.657Z,977.89
2018-02-15T07:27:05.865Z,977.83
2018-02-15T07:28:11.563Z,977.75
2018-02-15T07:29:05.834Z,977.69
2018-02-15T07:30:05.848Z,977.80
2018-02-15T07:31:05.564Z,977.66
2018-02-15T07:32:06.050Z,977.74
2018-02-15T07:33:05.945Z,977.74
2018-02-15T07:34:05.895Z,977.93
2018-02-15T07:35:05.369Z,977.79
2018-02-15T07:36:05.437Z,977.60
2018-02-15T07:37:04.971Z,977.79
2018-02-15T07:38:05.473Z,977.90
2018-02-15T07:39:05.247Z,977.79
2018-02-15T07:40:05.448Z,977.84
2018-02-15T07:41:05.057Z,977.81
2018-02-15T07:42:05.194Z,977.84
2018-02-15T07:43:11.215Z,977.84
2018-02-15T07:44:10.258Z,977.87
2018-02-15T07:45:05.467Z,977.75
2018-02-15T07:46:05.233Z,977.81
2018-02-15T07:47:10.608Z,977.86
2018-02-15T07:48:05.774Z,977.89
2018-02-15T07:49:05.651Z,977.86
2018-02-15T07:50:05.163Z,977.69
2018-02-15T07:51:05.272Z,977.89
2018-02-15T07:52:05.134Z,977.77
2018-02-15T07:53:05.927Z,977.97
2018-02-15T07:54:05.610Z,977.86
2018-02-15T07:55:05.356Z,977.74
2018-02-15T07:56:05.221Z,977.88
2018-02-15T07:57:05.842Z,977.91
2018-02-15T07:58:04.960Z,977.74
2018-02-15T07:59:05.232Z,977.74
2018-02-15T08:00:05.695Z,977.80
2018-02-15T08:01:05.944Z,977.91
2018-02-15T08:02:05.831Z,977.82
2018-02-15T08:03:05.629Z,977.79
2018-02-15T08:04:05.204Z,977.82
2018-02-15T08:05:05.790Z,977.88
2018-02-15T08:06:05.821Z,977.90
2018-02-15T08:07:05.005Z,977.76
2018-02-15T08:08:05.764Z,977.98
2018-02-15T08:09:05.172Z,978.09
2018-02-15T08:10:10.115Z,977.84
2018-02-15T08:11:06.173Z,977.84
2018-02-15T08:12:05.309Z,977.87
2018-02-15T08:13:05.677Z,977.87
2018-02-15T08:14:05.635Z,977.76
2018-02-15T08:15:10.916Z,978.01
2018-02-15T08:16:09.124Z,977.87
2018-02-15T08:17:05.138Z,977.97
2018-02-15T08:18:05.963Z,977.84
2018-02-15T08:19:05.673Z,977.92
2018-02-15T08:20:05.468Z,977.89
2018-02-15T08:21:05.149Z,977.89
2018-02-15T08:22:05.574Z,977.86
2018-02-15T08:23:05.527Z,977.75
2018-02-15T08:24:05.302Z,977.83
2018-02-15T08:25:05.241Z,977.75
2018-02-15T08:26:05.963Z,977.75
2018-02-15T08:27:05.738Z,977.86
2018-02-15T08:28:05.557Z,977.91
2018-02-15T08:29:05.556Z,977.80
2018-02-15T08:30:05.297Z,977.85
2018-02-15T08:31:05.226Z,977.85
2018-02-15T08:32:05.631Z,977.74
2018-02-15T08:33:05.987Z,977.88
2018-02-15T08:34:06.006Z,977.91
2018-02-15T08:35:05.236Z,977.93
2018-02-15T08:36:05.126Z,978.02
2018-02-15T08:37:05.116Z,977.90
2018-02-15T08:38:05.766Z,977.88
2018-02-15T08:39:05.895Z,977.85
2018-02-15T08:40:05.510Z,977.82
2018-02-15T08:41:06.025Z,977.73
2018-02-15T08:42:05.528Z,977.73
2018-02-15T08:43:05.211Z,977.87
2018-02-15T08:44:05.196Z,977.87
2018-02-15T08:45:05.854Z,977.84
2018-02-15T08:46:06.106Z,977.90
2018-02-15T08:47:05.985Z,977.98
2018-02-15T08:48:05.054Z,977.57
2018-02-15T08:49:05.348Z,977.73
2018-02-15T08:50:05.490Z,977.81
2018-02-15T08:51:05.799Z,977.81
2018-02-15T08:52:05.908Z,977.73
2018-02-15T08:53:05.030Z,977.70
2018-02-15T08:54:04.958Z,977.84
2018-02-15T08:55:05.388Z,977.81
2018-02-15T08:56:06.424Z,977.89
2018-02-15T08:57:05.949Z,977.86
2018-02-15T08:58:05.773Z,977.83
2018-02-15T08:59:05.354Z,977.86
2018-02-15T09:00:05.821Z,977.67
2018-02-15T09:01:05.635Z,977.66
2018-02-15T09:02:05.883Z,977.62
2018-02-15T09:03:05.913Z,977.75
2018-02-15T09:04:05.725Z,977.66
2018-02-15T09:05:05.392Z,977.50
2018-02-15T09:06:05.115Z,977.66
2018-02-15T09:07:05.266Z,977.59
2018-02-15T09:08:05.878Z,977.69
2018-02-15T09:09:05.015Z,977.61
2018-02-15T09:10:05.957Z,977.83
2018-02-15T09:11:05.709Z,977.77
2018-02-15T09:12:05.167Z,977.58
2018-02-15T09:13:05.309Z,977.74
2018-02-15T09:14:05.194Z,977.71
2018-02-15T09:15:05.214Z,977.66
2018-02-15T09:16:05.215Z,977.61
2018-02-15T09:17:05.169Z,977.49
2018-02-15T09:18:05.113Z,977.68
2018-02-15T09:19:05.896Z,977.60
2018-02-15T09:20:05.720Z,977.52
2018-02-15T09:21:05.234Z,977.44
2018-02-15T09:22:05.145Z,977.60
2018-02-15T09:23:06.883Z,977.46
2018-02-15T09:24:05.344Z,977.54
2018-02-15T09:25:05.714Z,977.49
2018-02-15T09:26:05.616Z,977.70
2018-02-15T09:27:05.724Z,977.40
2018-02-15T09:28:05.743Z,977.67
2018-02-15T09:29:06.888Z,977.54
2018-02-15T09:30:05.293Z,977.51
2018-02-15T09:31:05.085Z,977.48
2018-02-15T09:32:05.471Z,977.59
2018-02-15T09:33:05.888Z,977.56
2018-02-15T09:34:05.354Z,977.51
2018-02-15T09:35:05.229Z,977.54
2018-02-15T09:36:05.833Z,977.48
2018-02-15T09:37:04.957Z,977.34
2018-02-15T09:38:05.756Z,977.42
2018-02-15T09:39:05.792Z,977.53
2018-02-15T09:40:05.192Z,977.31
2018-02-15T09:41:05.971Z,977.36
2018-02-15T09:42:05.401Z,977.42
2018-02-15T09:43:06.248Z,977.66
2018-02-15T09:44:05.693Z,977.39
2018-02-15T09:45:05.300Z,977.30
2018-02-15T09:46:05.446Z,977.27
2018-02-15T09:47:05.697Z,977.41
2018-02-15T09:48:10.992Z,977.38
2018-02-15T09:49:05.861Z,977.38
2018-02-15T09:50:05.721Z,977.38
2018-02-15T09:51:05.827Z,977.44
2018-02-15T09:52:05.415Z,977.32
2018-02-15T09:53:05.663Z,977.35
2018-02-15T09:54:05.773Z,977.32
2018-02-15T09:55:05.546Z,977.27
2018-02-15T09:56:05.602Z,977.35
2018-02-15T09:57:05.688Z,977.38
2018-02-15T09:58:05.684Z,977.40
2018-02-15T09:59:05.304Z,977.37
2018-02-15T10:00:06.052Z,977.43
2018-02-15T10:01:05.368Z,977.46
2018-02-15T10:02:05.165Z,977.48
2018-02-15T10:03:05.937Z,977.43
2018-02-15T10:04:05.515Z,977.40
2018-02-15T10:05:05.468Z,977.40
2018-02-15T10:06:05.696Z,977.40
2018-02-15T10:07:05.764Z,977.29
2018-02-15T10:08:05.791Z,977.40
2018-02-15T10:09:05.411Z,977.51
2018-02-15T10:10:05.610Z,977.37
2018-02-15T10:11:05.221Z,977.39
2018-02-15T10:12:05.204Z,977.45
2018-02-15T10:13:05.302Z,977.39
2018-02-15T10:14:05.298Z,977.53
2018-02-15T10:15:05.354Z,977.50
2018-02-15T10:16:05.744Z,977.42
2018-02-15T10:17:05.622Z,977.45
2018-02-15T10:18:05.493Z,977.56
2018-02-15T10:19:05.642Z,977.56
2018-02-15T10:20:05.529Z,977.66
2018-02-15T10:21:05.319Z,977.58
2018-02-15T10:22:05.437Z,977.55
2018-02-15T10:23:10.415Z,977.53
2018-02-15T10:24:05.578Z,977.61
2018-02-15T10:25:05.105Z,977.50
2018-02-15T10:26:06.058Z,977.58
2018-02-15T10:27:05.335Z,977.61
2018-02-15T10:28:05.223Z,977.52
2018-02-15T10:29:05.016Z,977.52
2018-02-15T10:30:05.144Z,977.44
2018-02-15T10:31:05.440Z,977.65
2018-02-15T10:32:05.976Z,977.57
2018-02-15T10:33:05.731Z,977.57
2018-02-15T10:34:05.262Z,977.52
2018-02-15T10:35:05.848Z,977.49
2018-02-15T10:36:08.230Z,977.65
2018-02-15T10:37:05.134Z,977.35
2018-02-15T10:38:05.831Z,977.35
2018-02-15T10:39:05.424Z,977.43
2018-02-15T10:40:05.227Z,977.57
2018-02-15T10:41:04.979Z,977.43
2018-02-15T10:42:05.098Z,977.46
2018-02-15T10:43:05.842Z,977.43
2018-02-15T10:44:05.168Z,977.48
2018-02-15T10:45:05.004Z,977.45
2018-02-15T10:46:05.884Z,977.40
2018-02-15T10:47:05.678Z,977.42
2018-02-15T10:48:06.009Z,977.39
2018-02-15T10:49:05.326Z,977.39
2018-02-15T10:50:06.583Z,977.28
2018-02-15T10:51:05.638Z,977.45
2018-02-15T10:52:05.552Z,977.50
2018-02-15T10:53:05.697Z,977.44
2018-02-15T10:54:05.786Z,977.42
2018-02-15T10:55:05.177Z,977.16
2018-02-15T10:56:05.065Z,977.30
2018-02-15T10:57:05.642Z,977.30
2018-02-15T10:58:05.421Z,977.30
2018-02-15T10:59:05.369Z,977.27
2018-02-15T11:00:05.250Z,977.27
2018-02-15T11:01:05.306Z,977.38
2018-02-15T11:02:05.645Z,977.16
2018-02-15T11:03:05.100Z,977.21
2018-02-15T11:04:05.065Z,977.27
2018-02-15T11:05:05.786Z,977.13
2018-02-15T11:06:05.734Z,977.02
2018-02-15T11:07:06.003Z,977.13
2018-02-15T11:08:05.710Z,977.15
2018-02-15T11:09:05.048Z,977.07
2018-02-15T11:10:05.056Z,977.10
2018-02-15T11:11:05.248Z,977.10
2018-02-15T11:12:05.643Z,976.98
2018-02-15T11:13:05.772Z,977.10
2018-02-15T11:14:05.243Z,977.04
2018-02-15T11:15:06.174Z,976.90
2018-02-15T11:16:08.538Z,976.93
2018-02-15T11:17:05.608Z,977.04
2018-02-15T11:18:05.325Z,977.06
2018-02-15T11:19:05.830Z,977.04
2018-02-15T11:20:05.884Z,976.95
2018-02-15T11:21:05.510Z,977.06
2018-02-15T11:22:05.877Z,977.00
2018-02-15T11:23:05.917Z,977.09
2018-02-15T11:24:05.237Z,976.84
2018-02-15T11:25:05.255Z,976.98
2018-02-15T11:26:05.305Z,976.78
2018-02-15T11:27:05.673Z,976.86
2018-02-15T11:28:05.623Z,976.83
2018-02-15T11:29:05.106Z,976.89
2018-02-15T11:30:05.582Z,976.68
2018-02-15T11:31:06.009Z,976.73
2018-02-15T11:32:04.974Z,976.73
2018-02-15T11:33:05.802Z,976.70
2018-02-15T11:34:05.733Z,976.83
2018-02-15T11:35:05.771Z,976.73
2018-02-15T11:36:05.276Z,976.81
2018-02-15T11:37:05.018Z,976.80
2018-02-15T11:38:06.015Z,976.78
2018-02-15T11:39:05.213Z,976.83
2018-02-15T11:40:05.690Z,976.89
2018-02-15T11:41:05.165Z,976.80
2018-02-15T11:42:05.469Z,977.00
2018-02-15T11:43:05.448Z,976.89
2018-02-15T11:44:05.592Z,976.89
2018-02-15T11:45:05.395Z,976.94
2018-02-15T11:46:05.029Z,976.94
2018-02-15T11:47:05.065Z,976.86
2018-02-15T11:48:05.878Z,976.75
2018-02-15T11:49:05.870Z,976.86
2018-02-15T11:50:05.853Z,976.83
2018-02-15T11:51:05.476Z,976.86
2018-02-15T11:52:05.218Z,976.89
2018-02-15T11:53:07.473Z,976.92
2018-02-15T11:54:05.680Z,976.89
2018-02-15T11:55:05.711Z,976.86
2018-02-15T11:56:05.432Z,976.95
2018-02-15T11:57:05.101Z,977.00
2018-02-15T11:58:05.602Z,976.95
2018-02-15T11:59:06.020Z,976.98
2018-02-15T12:00:05.410Z,976.92
2018-02-15T12:01:05.270Z,977.00
2018-02-15T12:02:05.221Z,976.97
2018-02-15T12:03:05.155Z,976.86
2018-02-15T12:04:05.136Z,977.00
2018-02-15T12:05:05.809Z,976.92
2018-02-15T12:06:05.596Z,976.84
2018-02-15T12:07:05.584Z,976.81
2018-02-15T12:08:05.510Z,976.84
2018-02-15T12:09:05.067Z,976.78
2018-02-15T12:10:05.033Z,976.78
2018-02-15T12:11:06.099Z,976.73
2018-02-15T12:12:05.583Z,976.65
2018-02-15T12:13:05.751Z,976.86
2018-02-15T12:14:05.215Z,976.83
2018-02-15T12:15:05.468Z,976.75
2018-02-15T12:16:05.494Z,976.80
2018-02-15T12:17:05.741Z,976.86
2018-02-15T12:18:05.054Z,976.83
2018-02-15T12:19:05.985Z,976.94
2018-02-15T12:20:05.295Z,976.91
2018-02-15T12:21:05.184Z,976.70
2018-02-15T12:22:05.523Z,976.91
2018-02-15T12:23:10.433Z,976.91
2018-02-15T12:24:05.740Z,976.88
2018-02-15T12:25:05.668Z,976.91
2018-02-15T12:26:05.747Z,976.80
2018-02-15T12:27:05.308Z,976.67
2018-02-15T12:28:05.303Z,976.61